Time;durP1;ratioP1;P1;durP2;ratioP2;P2;SDS_P1;SDS_P2;PMS_P1;PMS_P2;Temp;Humidity;BMP_temperature;BMP_pressure;BME280_temperature;BME280_humidity;BME280_pressure;Samples;Min_cycle;Max_cycle;Signal;HPM_P1;HPM_P2
2024/03/28 00:02:00;;;;;;;4.97;3.13;;;9.20;99.90;;;;;;5052295;28;20389;-45
2024/03/28 00:04:27;;;;;;;4.57;2.58;;;9.20;99.90;;;;;;5052191;28;20040;-44
2024/03/28 00:06:53;;;;;;;6.65;2.85;;;9.20;99.90;;;;;;5052263;28;20509;-43
2024/03/28 00:09:19;;;;;;;5.68;3.38;;;9.20;99.90;;;;;;5050773;28;20037;-45
2024/03/28 00:11:44;;;;;;;6.57;2.85;;;9.20;99.90;;;;;;5052112;28;20032;-43
2024/03/28 00:14:10;;;;;;;3.92;2.67;;;9.20;99.90;;;;;;5052146;28;20029;-44
2024/03/28 00:16:36;;;;;;;5.28;3.05;;;9.20;99.90;;;;;;5051968;28;20064;-41
2024/03/28 00:19:01;;;;;;;5.82;3.25;;;9.10;99.90;;;;;;5052223;28;20028;-48
2024/03/28 00:21:27;;;;;;;4.43;2.85;;;9.00;99.90;;;;;;5052047;28;20462;-43
2024/03/28 00:23:52;;;;;;;7.10;3.22;;;9.00;99.90;;;;;;5051989;28;20032;-46
2024/03/28 00:26:18;;;;;;;4.13;2.15;;;9.00;99.90;;;;;;5051827;28;20576;-46
2024/03/28 00:28:43;;;;;;;4.53;2.53;;;9.00;99.90;;;;;;5052339;28;20370;-43
2024/03/28 00:31:10;;;;;;;8.10;4.13;;;8.90;99.90;;;;;;5051996;28;20032;-46
2024/03/28 00:33:35;;;;;;;4.80;2.58;;;8.90;99.90;;;;;;5050678;28;20025;-43
2024/03/28 00:36:01;;;;;;;3.17;2.50;;;8.90;99.90;;;;;;5051973;28;20025;-45
2024/03/28 00:38:27;;;;;;;7.88;2.28;;;8.90;99.90;;;;;;5051852;28;20072;-46
2024/03/28 00:40:54;;;;;;;3.10;2.65;;;8.90;99.90;;;;;;5051726;28;20034;-44
2024/03/28 00:43:20;;;;;;;4.20;2.85;;;8.90;99.90;;;;;;5052037;28;20520;-48
2024/03/28 00:45:46;;;;;;;5.15;3.50;;;8.90;99.90;;;;;;5051947;28;20540;-48
2024/03/28 00:48:14;;;;;;;5.00;2.67;;;8.90;99.90;;;;;;5051864;28;20118;-41
2024/03/28 00:50:40;;;;;;;;;;;8.90;99.90;;;;;;5043054;28;20474;-44
2024/03/28 00:53:06;;;;;;;2.47;2.00;;;8.90;99.90;;;;;;5046034;28;19927;-44
2024/03/28 00:55:33;;;;;;;3.45;2.20;;;8.90;99.90;;;;;;5052831;28;20032;-42
2024/03/28 00:57:59;;;;;;;2.97;2.63;;;8.90;99.90;;;;;;5051577;28;20113;-41
2024/03/28 01:00:24;;;;;;;4.68;2.35;;;8.90;99.90;;;;;;5051739;28;20523;-45
2024/03/28 01:02:50;;;;;;;4.93;2.58;;;8.90;99.90;;;;;;5051676;28;20029;-55
2024/03/28 01:05:15;;;;;;;4.38;2.60;;;8.80;99.90;;;;;;5052313;28;20029;-42
2024/03/28 01:07:42;;;;;;;8.68;2.50;;;8.80;99.90;;;;;;5055287;28;20083;-45
2024/03/28 01:10:08;;;;;;;5.90;2.60;;;8.80;99.90;;;;;;5055370;28;20389;-46
2024/03/28 01:12:34;;;;;;;3.78;2.15;;;8.70;99.90;;;;;;5055285;28;20025;-43
2024/03/28 01:14:59;;;;;;;4.63;2.55;;;8.70;99.90;;;;;;5055374;28;20028;-41
2024/03/28 01:17:25;;;;;;;2.72;2.40;;;8.70;99.90;;;;;;5054949;28;20045;-42
2024/03/28 01:19:51;;;;;;;3.78;2.65;;;8.70;99.90;;;;;;5053928;28;20090;-42
2024/03/28 01:22:19;;;;;;;5.47;2.33;;;8.70;99.90;;;;;;5055123;28;20025;-53
2024/03/28 01:24:46;;;;;;;;;;;8.70;99.90;;;;;;5055561;28;20486;-43
2024/03/28 01:27:11;;;;;;;4.13;2.20;;;8.70;99.90;;;;;;5054985;28;20281;-41
2024/03/28 01:29:37;;;;;;;4.50;2.50;;;8.70;99.90;;;;;;5055239;28;20058;-47
2024/03/28 01:32:03;;;;;;;3.65;2.45;;;8.70;99.90;;;;;;5054824;28;20025;-45
2024/03/28 01:34:29;;;;;;;3.40;2.47;;;8.70;99.90;;;;;;5054757;28;20362;-48
2024/03/28 01:36:55;;;;;;;2.67;2.47;;;8.60;99.90;;;;;;5054943;28;20056;-43
2024/03/28 01:39:20;;;;;;;2.67;2.40;;;8.50;99.90;;;;;;5054808;28;20032;-48
2024/03/28 01:41:50;;;;;;;3.30;2.45;;;8.40;99.90;;;;;;5054788;28;20064;-42
2024/03/28 01:44:16;;;;;;;2.72;2.28;;;8.30;99.90;;;;;;5054700;28;20540;-45
2024/03/28 01:46:43;;;;;;;3.13;2.08;;;8.30;99.90;;;;;;5054889;28;20037;-45
2024/03/28 01:49:09;;;;;;;4.32;2.45;;;8.30;99.90;;;;;;5054427;28;20025;-45
2024/03/28 01:51:38;;;;;;;11.10;2.92;;;8.20;99.90;;;;;;5054388;28;20025;-44
2024/03/28 01:54:06;;;;;;;7.63;2.60;;;8.20;99.90;;;;;;5054653;28;20108;-42
2024/03/28 01:56:34;;;;;;;4.03;2.17;;;8.20;99.90;;;;;;5054004;28;20028;-44
2024/03/28 01:59:01;;;;;;;3.42;2.75;;;8.20;99.90;;;;;;5054827;28;20467;-48
2024/03/28 02:01:28;;;;;;;3.03;2.67;;;8.10;99.90;;;;;;5052602;28;20060;-53
2024/03/28 02:03:53;;;;;;;6.47;3.30;;;8.20;99.90;;;;;;5053597;28;20033;-54
2024/03/28 02:06:19;;;;;;;2.88;2.58;;;8.20;99.90;;;;;;5053219;28;20091;-55
2024/03/28 02:08:45;;;;;;;4.95;2.97;;;8.10;99.90;;;;;;5052873;28;20393;-56
2024/03/28 02:11:11;;;;;;;2.85;2.03;;;8.10;99.90;;;;;;5054398;28;20017;-55
2024/03/28 02:13:36;;;;;;;2.80;2.58;;;8.10;99.90;;;;;;5054183;28;20159;-57
2024/03/28 02:16:03;;;;;;;2.42;2.22;;;8.10;99.90;;;;;;5053766;28;20508;-54
2024/03/28 02:18:29;;;;;;;3.28;2.67;;;8.10;99.90;;;;;;5052626;28;20551;-54
2024/03/28 02:20:56;;;;;;;3.17;2.40;;;8.10;99.90;;;;;;5053980;28;20029;-50
2024/03/28 02:23:22;;;;;;;9.90;2.93;;;8.10;99.90;;;;;;5051663;28;20481;-55
2024/03/28 02:25:48;;;;;;;2.67;2.40;;;8.10;99.90;;;;;;5053488;28;20345;-53
2024/03/28 02:28:14;;;;;;;5.68;2.05;;;8.10;99.90;;;;;;5053941;28;20025;-55
2024/03/28 02:30:41;;;;;;;9.82;2.13;;;8.10;99.90;;;;;;5053716;28;20469;-55
2024/03/28 02:33:07;;;;;;;2.88;2.30;;;8.10;99.90;;;;;;5053792;28;20021;-55
2024/03/28 02:35:32;;;;;;;4.20;2.60;;;8.00;99.90;;;;;;5053713;28;20039;-55
2024/03/28 02:37:58;;;;;;;5.20;2.58;;;8.00;99.90;;;;;;5053581;28;20025;-49
2024/03/28 02:40:27;;;;;;;3.10;1.85;;;8.00;99.90;;;;;;5053970;28;20029;-55
2024/03/28 02:42:53;;;;;;;2.00;1.60;;;7.90;99.90;;;;;;5053310;28;20541;-56
2024/03/28 02:45:19;;;;;;;4.55;2.33;;;7.90;99.90;;;;;;5053528;28;20485;-55
2024/03/28 02:47:46;;;;;;;4.47;1.80;;;7.90;99.90;;;;;;5053586;28;20032;-57
2024/03/28 02:50:11;;;;;;;3.47;2.25;;;7.90;99.90;;;;;;5053349;28;20116;-62
2024/03/28 02:52:37;;;;;;;3.70;1.65;;;7.90;99.90;;;;;;5053365;28;20051;-55
2024/03/28 02:55:03;;;;;;;4.05;2.80;;;7.90;99.90;;;;;;5053189;28;20478;-54
2024/03/28 02:57:29;;;;;;;3.83;2.40;;;7.90;99.90;;;;;;5053339;28;20033;-59
2024/03/28 02:59:55;;;;;;;3.53;2.17;;;8.00;99.90;;;;;;5053115;28;20497;-54
2024/03/28 03:02:20;;;;;;;2.15;1.73;;;8.00;99.90;;;;;;5053196;28;20017;-55
2024/03/28 03:04:46;;;;;;;4.57;2.08;;;8.00;99.90;;;;;;5053169;28;20500;-55
2024/03/28 03:07:12;;;;;;;4.53;2.13;;;8.00;99.90;;;;;;5052998;28;20501;-53
2024/03/28 03:09:38;;;;;;;4.70;1.92;;;7.90;99.90;;;;;;5055033;28;20021;-52
2024/03/28 03:12:04;;;;;;;2.65;1.73;;;7.90;99.90;;;;;;5052499;28;20367;-54
2024/03/28 03:14:30;;;;;;;2.10;1.42;;;7.90;99.90;;;;;;5052959;28;20524;-54
2024/03/28 03:16:56;;;;;;;3.80;2.13;;;7.90;99.90;;;;;;5051509;28;20042;-54
2024/03/28 03:19:22;;;;;;;2.83;1.70;;;7.90;99.90;;;;;;5051390;28;20385;-53
2024/03/28 03:21:50;;;;;;;3.17;2.05;;;7.90;99.90;;;;;;5052901;28;20385;-61
2024/03/28 03:24:16;;;;;;;3.22;1.35;;;7.90;99.90;;;;;;5053135;28;20629;-54
2024/03/28 03:26:52;;;;;;;4.90;1.63;;;7.90;99.90;;;;;;5052602;28;20119;-55
2024/03/28 03:34:50;;;;;;;1.83;1.70;;;7.90;99.90;;;;;;5052711;28;20056;-57
2024/03/28 03:37:20;;;;;;;8.05;1.70;;;8.00;99.90;;;;;;5052632;28;20056;-54
2024/03/28 03:39:45;;;;;;;9.45;1.60;;;8.00;99.90;;;;;;5052523;28;20039;-55
2024/03/28 03:42:11;;;;;;;1.83;1.60;;;8.00;99.90;;;;;;5052480;28;20029;-60
2024/03/28 03:44:37;;;;;;;4.90;1.85;;;8.00;99.90;;;;;;5059793;28;20031;-53
2024/03/28 03:47:03;;;;;;;1.88;1.60;;;8.00;99.90;;;;;;5059670;28;20665;-55
2024/03/28 03:49:29;;;;;;;1.33;1.23;;;8.10;99.90;;;;;;5051518;28;20115;-45
2024/03/28 03:51:55;;;;;;;2.83;1.85;;;8.10;99.90;;;;;;5051420;28;20025;-45
2024/03/28 03:54:20;;;;;;;4.57;1.80;;;8.10;99.90;;;;;;5052323;28;20525;-41
2024/03/28 03:56:46;;;;;;;1.60;1.30;;;8.10;99.90;;;;;;5052261;28;20120;-41
2024/03/28 03:59:11;;;;;;;3.85;1.45;;;8.10;99.90;;;;;;5050689;28;20436;-46
2024/03/28 04:01:37;;;;;;;2.13;1.60;;;8.10;99.90;;;;;;5052233;28;20029;-45
2024/03/28 04:04:03;;;;;;;1.60;1.50;;;8.10;99.90;;;;;;5052036;28;20040;-47
2024/03/28 04:06:29;;;;;;;3.67;1.83;;;8.10;99.90;;;;;;5051769;28;20485;-43
2024/03/28 04:08:55;;;;;;;2.22;1.48;;;8.20;99.90;;;;;;5052144;28;20071;-44
2024/03/28 04:11:21;;;;;;;5.43;2.53;;;8.20;99.90;;;;;;5051833;28;20063;-44
2024/03/28 04:13:47;;;;;;;1.90;1.80;;;8.20;99.90;;;;;;5044146;28;20075;-47
2024/03/28 04:16:12;;;;;;;2.97;1.50;;;8.30;99.90;;;;;;5032215;28;20033;-41
2024/03/28 04:18:38;;;;;;;2.47;1.60;;;8.30;99.90;;;;;;5041306;28;20039;-44
2024/03/28 04:21:03;;;;;;;9.48;1.92;;;8.30;99.90;;;;;;5051976;28;20025;-54
2024/03/28 04:23:29;;;;;;;2.58;1.20;;;8.30;99.90;;;;;;5051390;28;20028;-54
2024/03/28 04:26:00;;;;;;;1.58;1.20;;;8.30;99.90;;;;;;5051962;28;20029;-54
2024/03/28 04:28:26;;;;;;;1.65;1.33;;;8.30;99.90;;;;;;5051896;28;20066;-54
2024/03/28 04:30:52;;;;;;;1.67;1.58;;;8.20;99.90;;;;;;5047379;28;20032;-55
2024/03/28 04:33:18;;;;;;;1.52;1.35;;;8.20;99.90;;;;;;5051943;28;20036;-59
2024/03/28 04:35:47;;;;;;;4.75;1.38;;;8.20;99.90;;;;;;5051904;28;20064;-54
2024/03/28 04:38:13;;;;;;;2.50;1.75;;;8.20;99.90;;;;;;5048893;28;20029;-55
2024/03/28 04:40:39;;;;;;;2.22;1.50;;;8.20;99.90;;;;;;5048847;28;20515;-54
2024/03/28 04:43:04;;;;;;;4.40;1.30;;;8.20;99.90;;;;;;5055849;28;20039;-54
2024/03/28 04:45:30;;;;;;;2.78;1.35;;;8.20;99.90;;;;;;5055817;28;20495;-56
2024/03/28 04:47:55;;;;;;;1.85;1.60;;;8.20;99.90;;;;;;5055200;28;20082;-53
2024/03/28 04:50:21;;;;;;;1.33;1.17;;;8.20;99.90;;;;;;5055637;28;20029;-54
2024/03/28 04:52:47;;;;;;;2.30;1.15;;;8.20;99.90;;;;;;5051765;28;20022;-55
2024/03/28 04:55:13;;;;;;;2.97;1.63;;;8.20;99.90;;;;;;5047381;28;20017;-56
2024/03/28 04:57:40;;;;;;;3.88;1.40;;;8.20;99.90;;;;;;5050026;28;20028;-42
2024/03/28 05:00:08;;;;;;;2.03;1.60;;;8.20;99.90;;;;;;5034339;28;20025;-46
2024/03/28 05:02:34;;;;;;;3.50;1.60;;;8.20;99.90;;;;;;5034463;28;20053;-44
2024/03/28 05:05:01;;;;;;;4.05;1.83;;;8.20;99.90;;;;;;5050620;28;20509;-48
2024/03/28 05:07:27;;;;;;;1.73;1.63;;;8.20;99.90;;;;;;5053888;28;20115;-45
2024/03/28 05:09:52;;;;;;;3.25;2.08;;;8.20;99.90;;;;;;5055351;28;20060;-43
2024/03/28 05:12:18;;;;;;;1.20;1.02;;;8.30;99.90;;;;;;5055211;28;20389;-41
2024/03/28 05:14:44;;;;;;;4.93;1.52;;;8.30;99.90;;;;;;5055309;28;20159;-41
2024/03/28 05:17:10;;;;;;;2.17;1.98;;;8.30;99.90;;;;;;5054831;28;20098;-43
2024/03/28 05:19:36;;;;;;;9.43;2.28;;;8.40;99.90;;;;;;5055188;28;20033;-48
2024/03/28 05:22:02;;;;;;;2.45;1.60;;;8.40;99.90;;;;;;5055020;28;20260;-43
2024/03/28 05:24:28;;;;;;;3.25;1.80;;;8.40;99.90;;;;;;5054406;28;20366;-45
2024/03/28 05:26:55;;;;;;;2.63;1.58;;;8.40;99.90;;;;;;5053730;28;20021;-45
2024/03/28 05:29:21;;;;;;;1.35;1.25;;;8.40;99.90;;;;;;5047864;28;20021;-43
2024/03/28 05:31:47;;;;;;;1.80;1.58;;;8.40;99.90;;;;;;5055347;28;20436;-55
2024/03/28 05:34:15;;;;;;;5.43;1.58;;;8.40;99.90;;;;;;5038254;28;20037;-55
2024/03/28 05:36:41;;;;;;;1.73;1.38;;;8.50;99.90;;;;;;5035226;28;20532;-55
2024/03/28 05:39:08;;;;;;;4.95;2.00;;;8.50;99.90;;;;;;5053322;28;20028;-57
2024/03/28 05:41:34;;;;;;;1.70;1.60;;;8.50;99.90;;;;;;5054829;28;20504;-43
2024/03/28 05:44:00;;;;;;;1.50;1.40;;;8.50;99.90;;;;;;5054088;28;20537;-41
2024/03/28 05:46:26;;;;;;;2.17;1.80;;;8.50;99.90;;;;;;5054612;28;20037;-44
2024/03/28 05:48:52;;;;;;;1.50;1.40;;;8.50;99.90;;;;;;5054880;28;20427;-42
2024/03/28 05:51:18;;;;;;;2.80;1.90;;;8.50;99.90;;;;;;5053306;28;20355;-42
2024/03/28 05:53:48;;;;;;;5.53;1.40;;;8.50;99.90;;;;;;5048415;28;20401;-47
2024/03/28 05:56:13;;;;;;;1.90;1.40;;;8.50;99.90;;;;;;5054779;28;20114;-48
2024/03/28 05:58:39;;;;;;;2.00;1.52;;;8.50;99.90;;;;;;5054654;28;20497;-46
2024/03/28 06:01:04;;;;;;;2.30;1.80;;;8.50;99.90;;;;;;5053123;28;20393;-46
2024/03/28 06:03:30;;;;;;;3.10;1.63;;;8.60;99.90;;;;;;5054313;28;20099;-47
2024/03/28 06:05:56;;;;;;;2.95;1.70;;;8.60;99.90;;;;;;5053368;28;20086;-46
2024/03/28 06:08:22;;;;;;;2.25;1.63;;;8.60;99.90;;;;;;5052393;28;20481;-44
2024/03/28 06:10:47;;;;;;;3.30;1.42;;;8.50;99.90;;;;;;5054236;28;20473;-43
2024/03/28 06:13:16;;;;;;;1.65;1.45;;;8.40;99.90;;;;;;5053597;28;20046;-44
2024/03/28 06:15:41;;;;;;;3.03;1.83;;;8.50;99.90;;;;;;5054462;28;20709;-56
2024/03/28 06:18:07;;;;;;;2.85;1.70;;;8.50;99.90;;;;;;5053384;28;20044;-58
2024/03/28 06:20:33;;;;;;;2.13;1.70;;;8.50;99.90;;;;;;5054010;28;20033;-55
2024/03/28 06:22:58;;;;;;;4.30;2.33;;;8.50;99.90;;;;;;5053321;28;20029;-55
2024/03/28 06:25:24;;;;;;;1.83;1.55;;;8.60;99.90;;;;;;5054009;28;20083;-55
2024/03/28 06:27:49;;;;;;;2.08;1.75;;;8.70;99.90;;;;;;5053926;28;20493;-56
2024/03/28 06:30:25;;;;;;;2.15;1.80;;;8.70;99.90;;;;;;5053908;28;20531;-55
2024/03/28 06:32:51;;;;;;;2.40;1.63;;;8.70;99.90;;;;;;5037838;28;20470;-57
2024/03/28 06:35:17;;;;;;;4.10;2.22;;;8.80;99.90;;;;;;5047553;28;20032;-47
2024/03/28 06:37:43;;;;;;;3.03;2.38;;;8.80;99.90;;;;;;5052072;28;20025;-48
2024/03/28 06:40:10;;;;;;;10.88;1.90;;;8.90;99.90;;;;;;5052646;28;20025;-47
2024/03/28 06:42:36;;;;;;;4.53;2.10;;;9.00;99.90;;;;;;5053731;28;20505;-45
2024/03/28 06:45:01;;;;;;;5.28;2.08;;;9.10;99.90;;;;;;5050739;28;20111;-47
2024/03/28 06:47:27;;;;;;;2.75;1.90;;;9.20;99.90;;;;;;5053468;28;20512;-44
2024/03/28 06:49:52;;;;;;;10.18;2.17;;;9.20;99.90;;;;;;5035896;28;20025;-45
2024/03/28 06:52:18;;;;;;;4.18;2.47;;;9.10;99.90;;;;;;5052310;28;20029;-44
2024/03/28 06:54:44;;;;;;;2.25;2.03;;;9.10;99.90;;;;;;5052477;28;20029;-43
2024/03/28 06:57:10;;;;;;;2.72;1.92;;;9.10;99.90;;;;;;5053345;28;20494;-48
2024/03/28 06:59:36;;;;;;;2.40;2.03;;;9.10;99.90;;;;;;5053403;28;20117;-43
2024/03/28 07:02:01;;;;;;;6.60;2.20;;;9.10;99.90;;;;;;5053411;28;20056;-41
2024/03/28 07:04:27;;;;;;;5.07;1.88;;;9.10;99.90;;;;;;5031284;28;20029;-43
2024/03/28 07:06:53;;;;;;;4.80;2.05;;;9.10;99.90;;;;;;5033249;28;20386;-44
2024/03/28 07:09:19;;;;;;;2.55;1.90;;;9.10;99.90;;;;;;5041227;28;20061;-44
2024/03/28 07:11:45;;;;;;;2.22;2.00;;;9.10;99.90;;;;;;5052952;28;20048;-46
2024/03/28 07:14:12;;;;;;;7.93;2.65;;;9.10;99.90;;;;;;5052781;28;20056;-45
2024/03/28 07:16:38;;;;;;;5.30;2.40;;;9.10;99.90;;;;;;5051931;28;20408;-42
2024/03/28 07:19:05;;;;;;;5.57;2.67;;;9.10;99.90;;;;;;5052941;28;20108;-47
2024/03/28 07:21:31;;;;;;;2.85;2.50;;;9.20;99.90;;;;;;5052908;28;20504;-43
2024/03/28 07:23:59;;;;;;;3.00;2.60;;;9.30;99.90;;;;;;5049235;28;20032;-43
2024/03/28 07:26:26;;;;;;;6.85;1.90;;;9.30;99.90;;;;;;5053145;28;20529;-46
2024/03/28 07:28:52;;;;;;;2.78;2.10;;;9.40;99.90;;;;;;5052729;28;20021;-45
2024/03/28 07:31:17;;;;;;;3.20;2.20;;;9.40;99.90;;;;;;5051064;28;20039;-43
2024/03/28 07:33:44;;;;;;;3.05;2.47;;;9.40;99.90;;;;;;5050432;28;20025;-45
2024/03/28 07:36:11;;;;;;;6.30;2.57;;;9.40;99.90;;;;;;5052577;28;20029;-41
2024/03/28 07:38:37;;;;;;;6.38;2.40;;;9.30;99.90;;;;;;5052818;28;20044;-44
2024/03/28 07:41:03;;;;;;;3.28;2.30;;;9.20;99.90;;;;;;5036536;28;20029;-46
2024/03/28 07:43:29;;;;;;;4.05;2.45;;;9.20;99.90;;;;;;5032565;28;20498;-43
2024/03/28 07:46:05;;;;;;;5.38;1.80;;;9.20;99.90;;;;;;5049829;28;20112;-45
2024/03/28 07:48:33;;;;;;;2.40;1.85;;;9.10;99.90;;;;;;5052298;28;20029;-44
2024/03/28 07:51:00;;;;;;;4.13;2.15;;;9.20;99.90;;;;;;5050763;28;20017;-48
2024/03/28 07:53:27;;;;;;;3.25;2.58;;;9.20;99.90;;;;;;5052485;28;20443;-46
2024/03/28 07:55:53;;;;;;;2.25;2.05;;;9.20;99.90;;;;;;5038571;28;20120;-43
2024/03/28 07:58:25;;;;;;;4.07;2.13;;;9.20;99.90;;;;;;5032407;28;20132;-47
2024/03/28 08:00:51;;;;;;;3.95;3.03;;;9.10;99.90;;;;;;5049459;28;20060;-46
2024/03/28 08:03:18;;;;;;;2.72;2.08;;;9.10;99.90;;;;;;5051524;28;20057;-41
2024/03/28 08:05:49;;;;;;;3.83;1.85;;;9.10;99.90;;;;;;5049836;28;20123;-41
2024/03/28 08:08:15;;;;;;;4.57;2.20;;;9.10;99.90;;;;;;5052220;28;20075;-41
2024/03/28 08:10:41;;;;;;;2.15;1.50;;;9.00;99.90;;;;;;5051333;28;20025;-40
2024/03/28 08:13:06;;;;;;;2.45;1.48;;;9.00;99.90;;;;;;5045764;28;20097;-42
2024/03/28 08:15:33;;;;;;;1.52;1.38;;;8.90;99.90;;;;;;5032007;28;20466;-39
2024/03/28 08:18:00;;;;;;;3.08;2.22;;;8.80;99.90;;;;;;5045250;28;20041;-41
2024/03/28 08:20:29;;;;;;;7.10;1.27;;;8.60;99.90;;;;;;5051902;28;20033;-39
2024/03/28 08:22:56;;;;;;;1.50;1.10;;;8.60;99.90;;;;;;5052048;28;20526;-39
2024/03/28 08:25:22;;;;;;;1.20;1.10;;;8.50;99.90;;;;;;5051861;28;20029;-42
2024/03/28 08:27:49;;;;;;;0.73;0.73;;;8.40;99.90;;;;;;5052019;28;20045;-43
2024/03/28 08:30:15;;;;;;;0.80;0.60;;;8.40;99.90;;;;;;5052578;28;20486;-38
2024/03/28 08:32:41;;;;;;;0.50;0.50;;;8.30;99.90;;;;;;5052152;28;20032;-42
2024/03/28 08:35:10;;;;;;;0.85;0.60;;;8.20;99.90;;;;;;5052310;28;20393;-39
2024/03/28 08:37:39;;;;;;;0.40;0.40;;;8.30;99.90;;;;;;5052154;28;20470;-39
2024/03/28 08:40:09;;;;;;;0.80;0.20;;;8.20;99.90;;;;;;5052328;28;20371;-41
2024/03/28 08:42:35;;;;;;;1.52;0.40;;;8.20;99.90;;;;;;5052254;28;20509;-39
2024/03/28 08:45:02;;;;;;;0.70;0.50;;;8.20;99.90;;;;;;5051962;28;20025;-42
2024/03/28 08:47:28;;;;;;;3.97;0.85;;;8.20;99.90;;;;;;5051871;28;20478;-42
2024/03/28 08:49:54;;;;;;;1.65;0.60;;;8.20;99.90;;;;;;5052056;28;20029;-45
2024/03/28 08:52:20;;;;;;;0.50;0.50;;;8.20;99.90;;;;;;5050411;28;20397;-40
2024/03/28 08:54:45;;;;;;;0.50;0.50;;;8.20;99.90;;;;;;5051731;28;20320;-41
2024/03/28 08:57:12;;;;;;;0.55;0.38;;;8.20;99.90;;;;;;5051617;28;20025;-44
2024/03/28 08:59:39;;;;;;;4.22;0.40;;;8.20;99.90;;;;;;5051716;28;20079;-40
2024/03/28 09:02:07;;;;;;;1.70;0.43;;;8.20;99.90;;;;;;5051969;28;20033;-55
2024/03/28 09:04:33;;;;;;;3.58;0.47;;;8.20;99.90;;;;;;5052007;28;20029;-44
2024/03/28 09:06:59;;;;;;;1.30;0.52;;;8.20;99.90;;;;;;5051576;28;20545;-40
2024/03/28 09:09:24;;;;;;;1.38;0.40;;;8.20;99.90;;;;;;5051619;28;20385;-42
2024/03/28 09:11:50;;;;;;;1.10;0.50;;;8.20;99.90;;;;;;5051401;28;20025;-44
2024/03/28 09:14:16;;;;;;;0.60;0.60;;;8.30;99.90;;;;;;5051588;28;20478;-40
2024/03/28 09:16:42;;;;;;;0.77;0.50;;;8.30;99.90;;;;;;5051429;28;20055;-42
2024/03/28 09:19:08;;;;;;;1.85;0.85;;;8.30;99.90;;;;;;5051951;28;20032;-43
2024/03/28 09:21:34;;;;;;;1.92;0.80;;;8.30;99.90;;;;;;5051696;28;20478;-43
2024/03/28 09:24:00;;;;;;;1.10;1.00;;;8.40;99.90;;;;;;5051594;28;20036;-42
2024/03/28 09:26:25;;;;;;;4.53;1.00;;;8.40;99.90;;;;;;5052147;28;20040;-43
2024/03/28 09:28:57;;;;;;;3.33;0.95;;;8.40;99.90;;;;;;5055561;28;20386;-40
2024/03/28 09:31:23;;;;;;;0.80;0.80;;;8.40;99.90;;;;;;5051924;28;20477;-42
2024/03/28 09:33:48;;;;;;;2.60;0.80;;;8.50;99.90;;;;;;5055021;28;20113;-39
2024/03/28 09:36:16;;;;;;;1.33;1.23;;;8.50;99.90;;;;;;5053531;28;20033;-41
2024/03/28 09:38:50;;;;;;;1.52;0.90;;;8.50;99.90;;;;;;5053196;28;20401;-40
2024/03/28 09:41:28;;;;;;;1.02;0.85;;;8.50;99.90;;;;;;5054408;28;20038;-40
2024/03/28 09:44:04;;;;;;;3.22;0.90;;;8.50;99.90;;;;;;5048097;28;20536;-41
2024/03/28 09:46:30;;;;;;;1.23;1.20;;;8.30;99.90;;;;;;5044755;28;20040;-39
2024/03/28 09:48:58;;;;;;;1.33;0.98;;;8.30;99.90;;;;;;5054702;28;20029;-40
2024/03/28 09:51:26;;;;;;;1.58;0.93;;;8.30;99.90;;;;;;5054705;28;20029;-38
2024/03/28 09:53:53;;;;;;;2.20;1.37;;;8.30;99.90;;;;;;5044946;28;20024;-40
2024/03/28 09:56:19;;;;;;;1.50;0.95;;;8.30;99.90;;;;;;5035062;28;20624;-39
2024/03/28 09:58:45;;;;;;;3.45;1.90;;;8.30;99.90;;;;;;5034737;28;20042;-38
2024/03/28 10:01:13;;;;;;;2.65;1.33;;;8.30;99.90;;;;;;5049045;28;20393;-38
2024/03/28 10:03:40;;;;;;;3.10;1.15;;;8.30;99.90;;;;;;5061537;28;20028;-37
2024/03/28 10:06:06;;;;;;;1.88;1.40;;;8.20;99.90;;;;;;5048817;28;20043;-35
2024/03/28 10:08:32;;;;;;;2.53;1.48;;;8.20;99.90;;;;;;5053754;28;20056;-38
2024/03/28 10:10:59;;;;;;;2.22;1.70;;;8.20;99.90;;;;;;5054402;28;20068;-37
2024/03/28 10:13:38;;;;;;;2.67;1.60;;;8.30;99.90;;;;;;5054322;28;20116;-39
2024/03/28 10:16:06;;;;;;;3.20;1.77;;;8.40;99.90;;;;;;5053696;28;20366;-36
2024/03/28 10:18:32;;;;;;;1.80;1.70;;;8.60;99.90;;;;;;5053916;28;20398;-36
2024/03/28 10:20:59;;;;;;;2.55;1.98;;;8.80;99.90;;;;;;5051174;28;20380;-37
2024/03/28 10:23:26;;;;;;;3.63;2.15;;;8.90;99.90;;;;;;5051339;28;20056;-36
2024/03/28 10:25:52;;;;;;;2.70;2.05;;;9.00;99.90;;;;;;5039336;28;20033;-38
2024/03/28 10:28:22;;;;;;;2.42;1.85;;;9.00;99.90;;;;;;5054047;28;20029;-37
2024/03/28 10:30:54;;;;;;;2.80;2.08;;;9.00;99.90;;;;;;5052428;28;20119;-39
2024/03/28 10:33:21;;;;;;;3.20;2.40;;;9.00;99.90;;;;;;5055529;28;20421;-37
2024/03/28 10:36:02;;;;;;;2.53;2.22;;;9.10;99.90;;;;;;5052934;28;20503;-37
2024/03/28 10:38:29;;;;;;;2.25;2.00;;;9.00;99.90;;;;;;5053536;28;20501;-37
2024/03/28 10:40:57;;;;;;;2.40;2.20;;;9.10;99.90;;;;;;5053803;28;20513;-37
2024/03/28 10:43:25;;;;;;;3.30;2.55;;;9.30;99.90;;;;;;5053891;28;20025;-37
2024/03/28 10:46:02;;;;;;;2.83;2.38;;;9.50;99.90;;;;;;5053455;28;20090;-38
2024/03/28 10:48:31;;;;;;;2.80;2.35;;;9.60;99.90;;;;;;5053591;28;20025;-38
2024/03/28 10:51:25;;;;;;;4.93;2.38;;;9.60;99.90;;;;;;5052736;28;20021;-47
2024/03/28 10:54:20;;;;;;;4.50;1.83;;;9.70;99.90;;;;;;5053443;28;20060;-39
2024/03/28 10:56:46;;;;;;;10.73;3.13;;;9.80;99.90;;;;;;5051409;28;20029;-39
2024/03/28 10:59:14;;;;;;;3.70;2.35;;;10.00;99.90;;;;;;5052701;28;20055;-39
2024/03/28 11:01:40;;;;;;;3.85;1.80;;;10.10;99.90;;;;;;5052012;28;20017;-39
2024/03/28 11:04:11;;;;;;;4.15;2.00;;;10.20;99.90;;;;;;5052486;28;20029;-39
2024/03/28 11:06:37;;;;;;;3.08;2.38;;;10.20;99.90;;;;;;5052725;28;20043;-38
2024/03/28 11:09:05;;;;;;;2.45;1.60;;;10.10;99.90;;;;;;5053273;28;20041;-40
2024/03/28 11:11:33;;;;;;;2.40;1.23;;;10.20;99.90;;;;;;5053157;28;20099;-39
2024/03/28 11:13:59;;;;;;;8.05;2.55;;;10.10;99.90;;;;;;5052359;28;20032;-44
2024/03/28 11:16:25;;;;;;;7.28;2.00;;;10.20;99.90;;;;;;5052893;28;20026;-43
2024/03/28 11:18:51;;;;;;;3.50;1.98;;;10.40;99.90;;;;;;5043560;28;20033;-36
2024/03/28 11:21:26;;;;;;;6.97;1.88;;;10.70;99.90;;;;;;5035548;28;20497;-37
2024/03/28 11:23:53;;;;;;;9.13;1.00;;;10.90;99.90;;;;;;5053109;28;20037;-39
2024/03/28 11:26:23;;;;;;;4.57;1.40;;;10.90;99.90;;;;;;5052659;28;20504;-39
2024/03/28 11:29:00;;;;;;;6.90;0.75;;;10.90;99.90;;;;;;5040730;28;20030;-41
2024/03/28 11:31:25;;;;;;;2.85;0.80;;;10.90;99.90;;;;;;5044250;28;20033;-42
2024/03/28 11:34:01;;;;;;;8.23;1.45;;;10.90;99.90;;;;;;5053022;28;20024;-46
2024/03/28 11:36:29;;;;;;;3.05;1.00;;;10.90;99.90;;;;;;5051227;28;20103;-45
2024/03/28 11:38:55;;;;;;;5.10;0.70;;;11.00;99.90;;;;;;5051403;28;20440;-46
2024/03/28 11:41:22;;;;;;;4.93;0.95;;;11.10;99.90;;;;;;5052661;28;20029;-43
2024/03/28 11:43:48;;;;;;;2.33;0.73;;;11.20;99.90;;;;;;5051392;28;20116;-44
2024/03/28 11:46:14;;;;;;;4.07;0.98;;;11.30;99.90;;;;;;5052521;28;20123;-44
2024/03/28 11:48:40;;;;;;;6.75;1.25;;;11.30;99.90;;;;;;5052115;28;20491;-42
2024/03/28 11:51:07;;;;;;;3.17;1.48;;;11.50;99.90;;;;;;5052287;28;20092;-44
2024/03/28 11:53:34;;;;;;;4.82;1.08;;;11.60;99.90;;;;;;5052616;28;20098;-47
2024/03/28 11:56:01;;;;;;;5.40;1.20;;;11.60;99.90;;;;;;5052435;28;20470;-42
2024/03/28 11:58:31;;;;;;;8.30;1.05;;;11.50;99.90;;;;;;5051055;28;20020;-47
2024/03/28 12:00:58;;;;;;;7.43;1.02;;;11.50;99.90;;;;;;5050219;28;20032;-42
2024/03/28 12:03:24;;;;;;;7.27;2.37;;;11.60;99.90;;;;;;5052272;28;20087;-39
2024/03/28 12:05:51;;;;;;;5.30;1.13;;;11.70;99.90;;;;;;5051243;28;20637;-44
2024/03/28 12:08:21;;;;;;;2.72;0.80;;;11.80;99.90;;;;;;5052160;28;20504;-45
2024/03/28 12:10:47;;;;;;;8.93;0.80;;;11.90;99.90;;;;;;5062202;28;20024;-41
2024/03/28 12:13:13;;;;;;;4.57;0.95;;;12.10;99.90;;;;;;5051808;28;20021;-42
2024/03/28 12:15:38;;;;;;;6.78;1.63;;;12.10;99.90;;;;;;5036317;28;20052;-45
2024/03/28 12:18:04;;;;;;;0.60;0.55;;;12.10;99.90;;;;;;5051891;28;20083;-48
2024/03/28 12:20:31;;;;;;;2.00;0.68;;;12.20;99.90;;;;;;5052209;28;20529;-42
2024/03/28 12:22:58;;;;;;;5.60;1.20;;;12.20;99.90;;;;;;5052269;28;20025;-47
2024/03/28 12:25:24;;;;;;;0.80;0.47;;;12.20;99.90;;;;;;5052109;28;20567;-49
2024/03/28 12:27:58;;;;;;;1.15;0.68;;;12.30;99.90;;;;;;5056695;28;20112;-44
2024/03/28 12:30:27;;;;;;;3.20;0.60;;;12.50;99.90;;;;;;5057917;28;20116;-52
2024/03/28 12:33:05;;;;;;;3.67;0.60;;;12.50;99.90;;;;;;5052048;28;20052;-53
2024/03/28 12:35:33;;;;;;;2.70;0.80;;;12.60;99.90;;;;;;5032274;28;20026;-53
2024/03/28 12:38:01;;;;;;;1.00;0.73;;;12.60;99.90;;;;;;5045151;28;20382;-55
2024/03/28 12:40:27;;;;;;;5.82;0.63;;;12.60;99.90;;;;;;5041971;28;20453;-53
2024/03/28 12:42:53;;;;;;;2.55;0.60;;;12.60;99.90;;;;;;5032231;28;20025;-54
2024/03/28 12:45:28;;;;;;;1.25;0.80;;;12.80;99.90;;;;;;5032232;28;20029;-56
2024/03/28 12:47:54;;;;;;;2.03;0.80;;;12.80;99.90;;;;;;5032300;28;20021;-52
2024/03/28 12:50:22;;;;;;;6.40;1.27;;;12.80;99.90;;;;;;5036535;28;20447;-54
2024/03/28 12:52:53;;;;;;;3.83;1.40;;;12.80;99.90;;;;;;5051977;28;20358;-54
2024/03/28 12:55:19;;;;;;;3.20;1.52;;;12.80;99.90;;;;;;5051831;28;20017;-54
2024/03/28 12:57:46;;;;;;;0.80;0.80;;;12.70;99.90;;;;;;5051908;28;20029;-56
2024/03/28 13:00:13;;;;;;;4.13;1.10;;;13.10;99.90;;;;;;5052491;28;20488;-54